Time;durP1;ratioP1;P1;durP2;ratioP2;P2;SDS_P1;SDS_P2;PMS_P1;PMS_P2;Temp;Humidity;BMP_temperature;BMP_pressure;BME280_temperature;BME280_humidity;BME280_pressure;Samples;Min_cycle;Max_cycle;Signal;HPM_P1;HPM_P2
2023/01/25 00:01:50;;;;;;;4.97;3.07;;;;;;;3.47;84.07;95915.34;5051416;28;20262;-74
2023/01/25 00:04:15;;;;;;;5.07;3.00;;;;;;;3.47;84.15;95924.94;5051491;28;20617;-73
2023/01/25 00:06:41;;;;;;;5.57;3.30;;;;;;;3.44;84.52;95926.06;5050209;28;20444;-74
2023/01/25 00:09:06;;;;;;;4.40;2.97;;;;;;;3.44;84.71;95926.06;5051365;28;20175;-72
2023/01/25 00:11:31;;;;;;;6.80;3.80;;;;;;;3.44;84.64;95928.66;5051494;28;20677;-73
2023/01/25 00:13:57;;;;;;;6.27;3.10;;;;;;;3.38;84.92;95926.59;5050325;28;20179;-73
2023/01/25 00:16:23;;;;;;;4.00;2.80;;;;;;;3.37;85.58;95924.97;5051103;28;20179;-73
2023/01/25 00:18:49;;;;;;;5.30;3.45;;;;;;;3.27;85.66;95924.16;5050240;28;20415;-73
2023/01/25 00:21:20;;;;;;;5.82;3.72;;;;;;;3.18;86.45;95912.81;5050476;28;20989;-72
2023/01/25 00:23:46;;;;;;;5.00;3.40;;;;;;;3.17;86.93;95918.97;5050618;28;20826;-73
2023/01/25 00:26:12;;;;;;;5.13;3.40;;;;;;;3.22;86.71;95915.94;5049871;28;20403;-72
2023/01/25 00:28:37;;;;;;;5.93;3.10;;;;;;;3.26;86.50;95922.53;5051051;28;20171;-73
2023/01/25 00:31:05;;;;;;;5.83;2.90;;;;;;;3.24;86.12;95925.25;5050742;28;20578;-72
2023/01/25 00:33:36;;;;;;;7.30;2.80;;;;;;;3.27;86.65;95918.97;5050841;28;20171;-73
2023/01/25 00:36:15;;;;;;;4.10;2.73;;;;;;;3.20;86.53;95918.69;5050753;28;20261;-73
2023/01/25 00:38:42;;;;;;;3.83;2.60;;;;;;;3.19;86.45;95922.28;5068090;28;20409;-73
2023/01/25 00:41:08;;;;;;;2.47;2.20;;;;;;;3.18;86.88;95920.63;5050189;28;20245;-73
2023/01/25 00:43:34;;;;;;;3.43;2.17;;;;;;;3.16;86.94;95917.34;5050988;28;20171;-74
2023/01/25 00:46:00;;;;;;;5.57;3.37;;;;;;;3.21;86.59;95917.72;5050865;28;20167;-73
2023/01/25 00:48:26;;;;;;;4.20;3.17;;;;;;;3.21;86.49;95928.13;5050774;28;20646;-73
2023/01/25 00:50:51;;;;;;;3.30;2.40;;;;;;;3.22;86.41;95921.97;5061871;28;20207;-74
2023/01/25 00:53:16;;;;;;;3.30;2.27;;;;;;;3.26;86.62;95928.56;5070585;28;20174;-73
2023/01/25 00:55:51;;;;;;;5.70;2.53;;;;;;;3.28;86.15;95923.22;5054901;28;20233;-73
2023/01/25 00:58:16;;;;;;;5.47;3.30;;;;;;;3.28;86.20;95921.44;5050816;28;20558;-73
2023/01/25 01:00:41;;;;;;;5.63;3.10;;;;;;;3.31;85.76;95928.94;5050348;28;20178;-73
2023/01/25 01:03:07;;;;;;;3.67;2.83;;;;;;;3.31;86.07;95930.72;5050537;28;20225;-72
2023/01/25 01:05:34;;;;;;;3.60;3.03;;;;;;;3.32;85.48;95924.56;5050292;28;20175;-73
2023/01/25 01:08:00;;;;;;;5.00;3.70;;;;;;;3.24;85.03;95919.25;5048993;28;20190;-73
2023/01/25 01:10:25;;;;;;;5.83;3.80;;;;;;;3.16;86.12;95922.53;5049084;28;20823;-73
2023/01/25 01:12:51;;;;;;;5.20;3.33;;;;;;;3.22;85.67;95915.94;5050525;28;20437;-73
2023/01/25 01:15:16;;;;;;;4.47;3.00;;;;;;;3.22;85.40;95921.97;5050521;28;20677;-72
2023/01/25 01:17:42;;;;;;;5.67;3.10;;;;;;;3.19;85.75;95917.06;5049267;28;20902;-72
2023/01/25 01:20:08;;;;;;;4.03;3.30;;;;;;;3.33;85.50;95926.22;5050318;28;20178;-73
2023/01/25 01:22:33;;;;;;;6.07;3.78;;;;;;;3.29;84.54;95919.63;5050116;28;20068;-74
2023/01/25 01:24:58;;;;;;;5.80;3.10;;;;;;;3.15;85.07;95910.50;5050550;28;20178;-73
2023/01/25 01:27:24;;;;;;;6.37;4.53;;;;;;;3.11;85.51;95903.94;5060630;28;20417;-73
2023/01/25 01:29:49;;;;;;;5.80;3.90;;;;;;;3.05;85.93;95904.47;5070478;28;20185;-73
2023/01/25 01:32:15;;;;;;;7.43;3.40;;;;;;;3.09;85.78;95905.84;5070421;28;20208;-73
2023/01/25 01:34:40;;;;;;;6.17;3.80;;;;;;;3.13;86.32;95909.78;5070303;28;20198;-73
2023/01/25 01:37:06;;;;;;;5.83;3.83;;;;;;;3.13;86.45;95895.97;5039674;28;20406;-73
2023/01/25 01:39:31;;;;;;;5.33;3.80;;;;;;;3.27;85.43;95904.19;5042344;28;20489;-72
2023/01/25 01:41:57;;;;;;;4.53;2.87;;;;;;;3.24;85.12;95901.84;5050203;28;20599;-72
2023/01/25 01:44:47;;;;;;;4.87;3.53;;;;;;;3.23;85.33;95896.78;5049980;28;20636;-72
2023/01/25 01:47:30;;;;;;;6.17;3.17;;;;;;;3.16;86.13;95901.72;5049915;28;20175;-73
2023/01/25 01:50:15;;;;;;;5.05;3.35;;;;;;;3.22;86.32;95897.72;5049018;28;20503;-73
2023/01/25 01:52:41;;;;;;;4.47;2.77;;;;;;;3.21;86.15;95894.31;5050002;28;20183;-73
2023/01/25 01:55:12;;;;;;;5.20;2.70;;;;;;;3.26;85.64;95897.34;5050104;28;20197;-73
2023/01/25 01:57:46;;;;;;;4.65;2.85;;;;;;;3.20;86.01;95892.66;5049317;28;20748;-73
2023/01/25 02:00:16;;;;;;;3.93;2.33;;;;;;;3.19;86.31;95896.25;5048638;28;20171;-73
2023/01/25 02:02:41;;;;;;;2.85;2.30;;;;;;;3.23;85.74;95901.97;5048950;28;20490;-73
2023/01/25 02:05:13;;;;;;;5.87;3.23;;;;;;;3.21;85.16;95904.72;5049999;28;20298;-73
2023/01/25 02:07:39;;;;;;;2.73;2.13;;;;;;;3.18;84.92;95899.81;5049853;28;20227;-73
2023/01/25 02:10:08;;;;;;;9.88;3.15;;;;;;;3.10;84.44;95897.09;5049514;28;20427;-73
2023/01/25 02:12:35;;;;;;;3.03;2.27;;;;;;;3.11;85.33;95900.50;5049796;28;20175;-73
2023/01/25 02:15:01;;;;;;;4.20;2.53;;;;;;;2.99;85.04;95905.03;5049908;28;20179;-73
2023/01/25 02:17:30;;;;;;;4.67;2.73;;;;;;;2.97;85.15;95899.97;5048917;28;20940;-73
2023/01/25 02:20:14;;;;;;;4.20;2.90;;;;;;;2.93;85.25;95898.63;5048927;28;20941;-73
2023/01/25 02:22:48;;;;;;;3.83;2.50;;;;;;;3.00;85.10;95896.28;5055094;28;20416;-73
2023/01/25 02:25:15;;;;;;;4.13;2.43;;;;;;;2.94;85.04;95887.22;5060969;28;20179;-73
2023/01/25 02:27:50;;;;;;;3.33;2.37;;;;;;;2.88;85.00;95897.38;5049773;28;20175;-73
2023/01/25 02:30:15;;;;;;;5.10;2.72;;;;;;;2.77;85.28;95900.13;5050514;28;20437;-73
2023/01/25 02:32:41;;;;;;;3.90;2.43;;;;;;;2.76;86.00;95893.28;5052076;28;20905;-73
2023/01/25 02:35:07;;;;;;;2.80;2.20;;;;;;;2.82;86.00;95892.72;5053055;28;20415;-73
2023/01/25 02:37:32;;;;;;;2.85;2.40;;;;;;;2.80;85.82;95894.63;5052123;28;20403;-72
2023/01/25 02:39:58;;;;;;;3.73;2.27;;;;;;;2.85;85.34;95893.28;5053875;28;20203;-72
2023/01/25 02:42:23;;;;;;;3.27;2.20;;;;;;;2.87;84.85;95888.75;5052215;28;20605;-72
2023/01/25 02:44:50;;;;;;;4.43;2.03;;;;;;;2.85;84.77;95876.88;5052999;28;20170;-73
2023/01/25 02:47:15;;;;;;;3.65;2.45;;;;;;;2.79;84.78;95883.41;5051662;28;20415;-73
2023/01/25 02:49:40;;;;;;;3.40;2.33;;;;;;;2.86;84.56;95888.88;5053033;28;20167;-73
2023/01/25 02:52:06;;;;;;;2.97;2.23;;;;;;;2.86;84.86;95876.69;5061401;28;20434;-73
2023/01/25 02:54:32;;;;;;;3.72;2.40;;;;;;;2.88;84.36;95887.78;5071637;28;20409;-73
2023/01/25 02:56:57;;;;;;;3.07;2.13;;;;;;;2.86;84.26;95888.88;5072921;28;20256;-73
2023/01/25 02:59:22;;;;;;;2.47;1.80;;;;;;;2.89;85.01;95893.81;5057668;28;20178;-73
2023/01/25 03:01:48;;;;;;;3.70;2.23;;;;;;;2.89;84.18;95891.22;5052098;28;20561;-73
2023/01/25 03:04:14;;;;;;;3.97;2.20;;;;;;;2.91;84.16;95894.50;5056555;28;20403;-73
2023/01/25 03:06:40;;;;;;;5.20;2.90;;;;;;;2.87;83.98;95887.91;5065723;28;20218;-74
2023/01/25 03:09:07;;;;;;;4.30;3.00;;;;;;;2.82;84.42;95888.34;5071417;28;20402;-73
2023/01/25 03:11:33;;;;;;;8.53;4.17;;;;;;;2.74;84.00;95877.00;5072984;28;20204;-74
2023/01/25 03:13:59;;;;;;;3.63;3.00;;;;;;;2.77;84.17;95895.72;5068362;28;20557;-73
2023/01/25 03:16:25;;;;;;;5.40;3.27;;;;;;;2.77;84.76;95885.31;5054345;28;20167;-73
2023/01/25 03:18:54;;;;;;;7.00;3.90;;;;;;;2.65;84.85;95887.25;5056959;28;20948;-73
2023/01/25 03:21:21;;;;;;;6.83;3.43;;;;;;;2.66;85.04;95885.47;5052583;28;20175;-73
2023/01/25 03:23:53;;;;;;;4.83;3.60;;;;;;;2.64;85.53;95888.22;5052487;28;20244;-74
2023/01/25 03:26:20;;;;;;;4.97;3.90;;;;;;;2.70;85.32;95876.44;5066801;28;20406;-73
2023/01/25 03:28:45;;;;;;;6.00;3.70;;;;;;;2.65;85.00;95892.47;5063624;28;20241;-73
2023/01/25 03:31:14;;;;;;;6.70;3.78;;;;;;;2.69;85.04;95881.78;5051607;28;20972;-73
2023/01/25 03:33:40;;;;;;;4.50;3.07;;;;;;;2.72;85.70;95887.53;5052802;28;20168;-74
2023/01/25 03:36:06;;;;;;;6.00;3.93;;;;;;;2.72;85.82;95891.91;5051521;28;20403;-73
2023/01/25 03:38:33;;;;;;;5.43;3.43;;;;;;;2.75;84.96;95897.66;5061766;28;20413;-74
2023/01/25 03:40:59;;;;;;;5.05;3.75;;;;;;;2.79;84.33;95890.38;5070751;28;20402;-73
2023/01/25 03:43:25;;;;;;;7.45;4.38;;;;;;;2.77;84.20;95889.72;5070805;28;20900;-73
2023/01/25 03:45:55;;;;;;;5.78;3.78;;;;;;;2.78;83.11;95899.16;5071607;28;20414;-73
2023/01/25 03:48:22;;;;;;;7.60;3.97;;;;;;;2.82;82.57;95882.31;5070985;28;20413;-73
2023/01/25 03:50:52;;;;;;;4.70;3.55;;;;;;;2.94;82.45;95889.81;5070691;28;20429;-74
2023/01/25 03:53:27;;;;;;;4.47;3.30;;;;;;;2.83;82.03;95874.41;5065154;28;20204;-73
2023/01/25 03:55:55;;;;;;;4.78;3.28;;;;;;;2.81;82.49;95880.69;5071695;28;20908;-73
2023/01/25 03:58:20;;;;;;;4.97;3.07;;;;;;;2.79;82.99;95877.38;5056359;28;20518;-73
2023/01/25 04:00:46;;;;;;;6.50;3.87;;;;;;;2.84;83.34;95877.81;5050496;28;20494;-73
2023/01/25 04:03:11;;;;;;;4.70;3.00;;;;;;;2.87;83.09;95869.72;5051947;28;20237;-74
2023/01/25 04:05:36;;;;;;;4.80;3.07;;;;;;;2.92;82.82;95873.56;5051484;28;20187;-74
2023/01/25 04:08:02;;;;;;;5.27;3.30;;;;;;;2.91;82.90;95871.94;5051649;28;20218;-74
2023/01/25 04:10:27;;;;;;;2.63;2.40;;;;;;;2.95;83.40;95869.84;5051456;28;20233;-73
2023/01/25 04:12:52;;;;;;;4.47;3.17;;;;;;;2.89;83.17;95865.22;5051511;28;21005;-73
2023/01/25 04:15:18;;;;;;;4.90;2.50;;;;;;;2.86;83.09;95862.88;5071219;28;20187;-73
2023/01/25 04:17:43;;;;;;;3.70;2.80;;;;;;;2.83;83.38;95869.19;5071435;28;20626;-73
2023/01/25 04:20:09;;;;;;;4.07;2.53;;;;;;;2.85;84.13;95869.06;5054758;28;20181;-73
2023/01/25 04:22:35;;;;;;;4.50;2.60;;;;;;;2.89;84.34;95876.44;5048789;28;20182;-73
2023/01/25 04:25:00;;;;;;;4.03;2.70;;;;;;;2.88;83.77;95850.56;5051115;28;20359;-72
2023/01/25 04:27:25;;;;;;;3.27;2.47;;;;;;;2.93;83.57;95864.81;5050586;28;20706;-73
2023/01/25 04:29:51;;;;;;;4.33;2.90;;;;;;;3.00;83.49;95875.47;5051184;28;20190;-73
2023/01/25 04:32:16;;;;;;;4.50;2.70;;;;;;;2.92;83.73;95868.38;5050888;28;20277;-73
2023/01/25 04:34:42;;;;;;;6.90;2.77;;;;;;;2.94;83.82;95879.44;5050959;28;20179;-73
2023/01/25 04:37:07;;;;;;;4.70;3.10;;;;;;;2.85;83.76;95874.25;5039907;28;20434;-73
2023/01/25 04:39:32;;;;;;;4.83;3.60;;;;;;;2.93;84.03;95879.59;5041243;28;20433;-73
2023/01/25 04:41:58;;;;;;;5.43;3.30;;;;;;;2.99;83.75;95884.22;5042342;28;20427;-73
2023/01/25 04:44:23;;;;;;;4.17;3.00;;;;;;;3.02;84.04;95879.59;5043409;28;20617;-73
2023/01/25 04:46:48;;;;;;;5.37;3.67;;;;;;;3.08;83.30;95877.38;5047844;28;20435;-73
2023/01/25 04:49:14;;;;;;;4.13;2.73;;;;;;;3.09;83.23;95879.84;5056587;28;20179;-73
2023/01/25 04:51:39;;;;;;;3.87;2.60;;;;;;;3.03;83.34;95885.56;5061731;28;20701;-73
2023/01/25 04:54:05;;;;;;;5.87;3.40;;;;;;;3.04;83.93;95875.03;5049790;28;20655;-73
2023/01/25 04:56:30;;;;;;;3.67;2.43;;;;;;;3.10;83.87;95888.47;5054713;28;20616;-73
2023/01/25 04:58:56;;;;;;;4.17;3.20;;;;;;;3.12;83.69;95876.94;5070244;28;20502;-74
2023/01/25 05:01:21;;;;;;;4.63;2.87;;;;;;;3.13;83.61;95880.38;5059461;28;20270;-74
2023/01/25 05:03:46;;;;;;;5.30;2.80;;;;;;;3.13;83.63;95880.38;5062931;28;20180;-74
2023/01/25 05:06:12;;;;;;;4.40;3.03;;;;;;;3.13;83.41;95886.38;5058587;28;20218;-74
2023/01/25 05:08:37;;;;;;;8.03;4.83;;;;;;;3.14;83.98;95879.41;5049262;28;20418;-74
2023/01/25 05:11:03;;;;;;;5.47;3.20;;;;;;;3.14;84.20;95879.41;5050263;28;20592;-73
2023/01/25 05:13:28;;;;;;;5.30;3.87;;;;;;;3.20;84.16;95873.66;5049044;28;20411;-73
2023/01/25 05:15:55;;;;;;;4.73;3.47;;;;;;;3.24;84.14;95875.84;5065368;28;20606;-73
2023/01/25 05:18:20;;;;;;;5.50;3.13;;;;;;;3.32;83.56;95877.72;5063685;28;20184;-73
2023/01/25 05:20:46;;;;;;;4.87;3.40;;;;;;;3.31;83.76;95873.47;5057724;28;21020;-73
2023/01/25 05:23:11;;;;;;;8.43;4.30;;;;;;;3.33;83.80;95861.97;5067691;28;20170;-73
2023/01/25 05:28:21;;;;;;;8.73;3.80;;;;;;;3.31;83.93;95866.50;5049926;28;20680;-74
2023/01/25 05:30:46;;;;;;;7.70;3.63;;;;;;;3.38;84.09;95870.16;5061553;28;20214;-74
2023/01/25 05:33:11;;;;;;;5.23;3.37;;;;;;;3.37;84.28;95865.91;5067879;28;20178;-73
2023/01/25 05:35:37;;;;;;;6.83;3.53;;;;;;;3.33;84.47;95872.38;5049925;28;20167;-73
2023/01/25 05:38:02;;;;;;;8.13;3.83;;;;;;;3.28;84.68;95872.00;5048808;28;20210;-73
2023/01/25 05:40:27;;;;;;;6.00;3.90;;;;;;;3.31;84.67;95869.09;5049152;28;20906;-73
2023/01/25 05:42:58;;;;;;;6.83;4.20;;;;;;;3.23;85.46;95870.75;5048909;28;20423;-73
2023/01/25 05:45:24;;;;;;;4.87;3.53;;;;;;;3.20;86.05;95874.47;5050017;28;20200;-73
2023/01/25 05:47:53;;;;;;;6.50;3.90;;;;;;;3.20;85.74;95869.25;5050000;28;20175;-73
2023/01/25 05:50:19;;;;;;;7.77;4.23;;;;;;;3.28;86.04;95872.00;5049815;28;20654;-73
2023/01/25 05:52:45;;;;;;;13.60;7.53;;;;;;;3.31;85.93;95878.69;5049145;28;20415;-72
2023/01/25 05:55:11;;;;;;;19.47;9.73;;;;;;;3.34;85.72;95878.41;5048900;28;20488;-73
2023/01/25 05:57:36;;;;;;;27.63;13.30;;;;;;;3.42;85.70;95879.34;5049918;28;20182;-73
2023/01/25 06:00:04;;;;;;;15.33;8.63;;;;;;;3.40;85.45;95878.66;5049660;28;20194;-74
2023/01/25 06:02:30;;;;;;;6.20;3.70;;;;;;;3.30;83.63;95880.47;5055549;28;20170;-73
2023/01/25 06:04:56;;;;;;;6.35;4.18;;;;;;;3.12;84.34;95881.31;5069587;28;20417;-74
2023/01/25 06:07:21;;;;;;;8.17;4.90;;;;;;;2.87;85.80;95867.94;5072712;28;20503;-74
2023/01/25 06:09:46;;;;;;;7.37;4.27;;;;;;;2.90;85.89;95877.25;5071229;28;21230;-73
2023/01/25 06:12:12;;;;;;;6.20;3.90;;;;;;;2.81;86.47;95878.91;5072321;28;20429;-74
2023/01/25 06:14:37;;;;;;;7.43;3.60;;;;;;;2.98;85.61;95888.59;5072463;28;20956;-73
2023/01/25 06:17:02;;;;;;;6.40;3.37;;;;;;;2.97;85.35;95896.53;5073442;28;20713;-73
2023/01/25 06:19:28;;;;;;;6.27;3.87;;;;;;;2.92;85.55;95890.94;5071654;28;20413;-73
2023/01/25 06:21:53;;;;;;;6.77;3.17;;;;;;;2.94;85.97;95897.63;5073479;28;20547;-74
2023/01/25 06:24:19;;;;;;;6.57;3.20;;;;;;;3.00;86.22;95891.06;5073454;28;20174;-74
2023/01/25 06:26:44;;;;;;;8.50;3.90;;;;;;;3.10;85.92;95891.88;5072786;28;20905;-73
2023/01/25 06:29:09;;;;;;;6.83;3.50;;;;;;;2.95;85.82;95878.47;5073219;28;20182;-74
2023/01/25 06:31:35;;;;;;;6.03;3.80;;;;;;;2.88;85.58;95887.78;5071902;28;20936;-73
2023/01/25 06:34:03;;;;;;;6.45;4.20;;;;;;;2.86;85.92;95876.69;5072054;28;20896;-73
2023/01/25 06:36:29;;;;;;;6.00;3.95;;;;;;;3.02;85.66;95884.78;5072521;28;20417;-73
2023/01/25 06:38:54;;;;;;;6.70;4.13;;;;;;;2.94;85.74;95886.44;5066437;28;20419;-73
2023/01/25 06:41:20;;;;;;;7.27;4.10;;;;;;;3.03;85.73;95890.78;5053413;28;20183;-74
2023/01/25 06:43:46;;;;;;;6.40;3.95;;;;;;;2.85;85.91;95885.50;5070916;28;20421;-73
2023/01/25 06:46:12;;;;;;;5.80;3.80;;;;;;;2.84;86.29;95886.44;5073416;28;20178;-73
2023/01/25 06:48:41;;;;;;;6.00;3.75;;;;;;;2.76;86.14;95877.69;5072150;28;20482;-74
2023/01/25 06:51:09;;;;;;;5.88;4.20;;;;;;;2.50;87.74;95878.22;5071883;28;20514;-73
2023/01/25 06:53:38;;;;;;;6.87;4.20;;;;;;;2.48;87.93;95880.13;5073006;28;20647;-74
2023/01/25 06:56:10;;;;;;;7.53;4.47;;;;;;;2.58;88.24;95886.16;5071720;28;20484;-73
2023/01/25 06:58:35;;;;;;;7.90;4.33;;;;;;;2.67;86.93;95884.53;5072225;28;20501;-74
2023/01/25 07:01:08;;;;;;;6.87;4.37;;;;;;;2.74;86.12;95874.41;5072839;28;20174;-73
2023/01/25 07:03:33;;;;;;;7.07;4.25;;;;;;;2.75;86.00;95876.88;5071785;28;20405;-73
2023/01/25 07:06:04;;;;;;;7.07;4.35;;;;;;;2.81;86.57;95878.09;5071468;28;20425;-74
2023/01/25 07:08:31;;;;;;;5.47;3.80;;;;;;;2.83;85.76;95886.56;5072577;28;20691;-74
2023/01/25 07:10:59;;;;;;;7.07;4.63;;;;;;;2.77;86.03;95884.53;5071073;28;20426;-73
2023/01/25 07:13:25;;;;;;;6.55;4.30;;;;;;;2.75;86.00;95876.03;5071209;28;20410;-73
2023/01/25 07:15:59;;;;;;;6.93;4.38;;;;;;;2.84;85.89;95880.41;5071869;28;20417;-74
2023/01/25 07:18:26;;;;;;;6.93;4.18;;;;;;;2.64;85.31;95872.63;5071771;28;20398;-74
2023/01/25 07:20:52;;;;;;;9.20;4.30;;;;;;;2.65;85.64;95889.88;5071941;28;20409;-73
2023/01/25 07:23:18;;;;;;;5.60;3.80;;;;;;;2.69;86.16;95887.78;5071580;28;21317;-73
2023/01/25 07:25:48;;;;;;;6.35;4.25;;;;;;;2.70;85.20;95888.63;5071722;28;20420;-73
2023/01/25 07:28:15;;;;;;;6.95;4.00;;;;;;;2.64;85.57;95884.78;5071708;28;20434;-73
2023/01/25 07:30:41;;;;;;;7.43;4.22;;;;;;;2.77;85.51;95885.31;5071291;28;20421;-73
2023/01/25 07:33:07;;;;;;;7.07;3.95;;;;;;;2.75;85.45;95895.06;5071620;28;20428;-73
2023/01/25 07:35:32;;;;;;;6.07;4.13;;;;;;;2.79;85.44;95900.78;5071150;28;20513;-73
2023/01/25 07:37:58;;;;;;;4.70;3.35;;;;;;;2.74;85.50;95900.41;5072221;28;20448;-73
2023/01/25 07:40:24;;;;;;;5.97;3.90;;;;;;;2.76;85.08;95893.28;5071422;28;20900;-73
2023/01/25 07:42:52;;;;;;;5.70;3.80;;;;;;;2.72;84.76;95902.31;5070752;28;20421;-73
2023/01/25 07:45:19;;;;;;;6.30;4.18;;;;;;;2.66;85.57;95903.69;5070754;28;20915;-73
2023/01/25 07:47:45;;;;;;;5.90;4.18;;;;;;;2.71;85.85;95904.06;5055855;28;20425;-73
2023/01/25 07:50:10;;;;;;;9.20;4.10;;;;;;;2.79;85.94;95900.78;5059656;28;20174;-73
2023/01/25 07:52:36;;;;;;;4.97;3.30;;;;;;;2.80;85.15;95907.63;5070047;28;20428;-73
2023/01/25 07:55:01;;;;;;;5.70;3.60;;;;;;;2.75;84.80;95904.63;5070324;28;20414;-73
2023/01/25 07:57:27;;;;;;;6.10;3.65;;;;;;;2.77;84.80;95900.13;5056043;28;20429;-73
2023/01/25 07:59:53;;;;;;;6.03;3.77;;;;;;;2.86;83.91;95912.28;5050603;28;20502;-73
2023/01/25 08:02:19;;;;;;;4.17;3.50;;;;;;;2.79;84.25;95901.63;5050845;28;20190;-73
2023/01/25 08:04:44;;;;;;;4.77;3.17;;;;;;;2.86;84.31;95900.09;5051282;28;20171;-73
2023/01/25 08:07:10;;;;;;;5.13;3.47;;;;;;;2.55;84.78;95903.81;5050350;28;20428;-72
2023/01/25 08:09:36;;;;;;;5.37;3.30;;;;;;;2.32;86.02;95900.63;5052472;28;20175;-72
2023/01/25 08:12:01;;;;;;;5.43;3.70;;;;;;;2.46;86.79;95899.41;5050682;28;20451;-71
2023/01/25 08:14:27;;;;;;;5.23;3.67;;;;;;;2.42;86.52;95898.84;5050933;28;20498;-72
2023/01/25 08:16:52;;;;;;;7.57;4.10;;;;;;;2.42;86.37;95895.47;5051159;28;20258;-73
2023/01/25 08:19:19;;;;;;;8.40;3.70;;;;;;;2.56;86.21;95893.28;5051431;28;20312;-73
2023/01/25 08:21:44;;;;;;;7.90;3.87;;;;;;;2.69;85.85;95902.56;5071098;28;20867;-72
2023/01/25 08:24:11;;;;;;;6.38;4.68;;;;;;;2.44;85.64;95890.94;5057363;28;20442;-73
2023/01/25 08:26:37;;;;;;;7.23;4.97;;;;;;;2.16;87.59;95895.16;5049919;28;20427;-73
2023/01/25 08:29:04;;;;;;;5.80;4.23;;;;;;;2.26;87.12;95891.59;5050255;28;20428;-73
2023/01/25 08:31:32;;;;;;;8.03;4.80;;;;;;;2.28;86.42;95894.06;5061966;28;20224;-73
2023/01/25 08:33:59;;;;;;;9.00;4.93;;;;;;;2.08;88.32;95897.56;5071062;28;20569;-73
2023/01/25 08:36:26;;;;;;;6.77;4.13;;;;;;;2.24;88.42;95893.53;5070878;28;20178;-73
2023/01/25 08:38:57;;;;;;;7.30;4.57;;;;;;;2.43;87.81;95895.31;5070744;28;20649;-73
2023/01/25 08:41:24;;;;;;;7.93;4.90;;;;;;;2.58;87.01;95893.97;5070787;28;20257;-73
2023/01/25 08:43:52;;;;;;;9.20;4.97;;;;;;;2.69;85.52;95897.38;5062151;28;20183;-73
2023/01/25 08:46:18;;;;;;;7.23;4.17;;;;;;;2.62;85.63;95886.69;5050608;28;20178;-73
2023/01/25 08:48:43;;;;;;;9.27;4.80;;;;;;;2.66;86.42;95880.28;5048401;28;20632;-73
2023/01/25 08:51:14;;;;;;;7.97;4.93;;;;;;;2.71;85.99;95892.84;5050990;28;20201;-72
2023/01/25 08:53:39;;;;;;;6.83;4.90;;;;;;;2.76;86.68;95873.31;5050748;28;20262;-73
2023/01/25 08:56:06;;;;;;;6.53;4.47;;;;;;;2.88;86.41;95889.56;5053915;28;20684;-73
2023/01/25 08:58:32;;;;;;;7.83;4.77;;;;;;;2.87;86.17;95885.31;5036183;28;20650;-73
2023/01/25 09:01:03;;;;;;;6.27;4.70;;;;;;;2.96;85.47;95892.28;5059839;28;20268;-73
2023/01/25 09:03:29;;;;;;;7.20;3.97;;;;;;;2.74;85.43;95896.03;5070475;28;20178;-72
2023/01/25 09:05:55;;;;;;;7.53;4.73;;;;;;;2.61;86.69;95891.06;5070266;28;20561;-73
2023/01/25 09:08:20;;;;;;;8.00;5.00;;;;;;;2.52;86.48;95888.47;5070482;28;20214;-72
2023/01/25 09:10:45;;;;;;;10.47;4.70;;;;;;;2.57;87.31;95875.91;5050559;28;20199;-72
2023/01/25 09:13:11;;;;;;;8.33;5.30;;;;;;;2.74;86.50;95882.19;5068011;28;20190;-72
2023/01/25 09:15:37;;;;;;;8.30;4.50;;;;;;;2.78;86.82;95884.38;5070310;28;20625;-72
2023/01/25 09:18:02;;;;;;;8.27;5.17;;;;;;;2.64;86.71;95882.19;5070299;28;20189;-72
2023/01/25 09:20:28;;;;;;;7.90;4.90;;;;;;;2.67;87.47;95881.09;5070256;28;20577;-72
2023/01/25 09:22:54;;;;;;;9.53;5.10;;;;;;;2.83;87.21;95878.78;5070112;28;20185;-72
2023/01/25 09:25:20;;;;;;;8.70;5.67;;;;;;;3.01;87.07;95877.94;5070378;28;20542;-72
2023/01/25 09:27:49;;;;;;;6.97;5.20;;;;;;;3.05;86.94;95881.06;5070120;28;20197;-72
2023/01/25 09:30:14;;;;;;;8.23;5.57;;;;;;;3.02;87.42;95870.97;5070200;28;20221;-72
2023/01/25 09:32:40;;;;;;;9.37;5.47;;;;;;;3.18;87.95;95863.41;5060278;28;20292;-72
2023/01/25 09:35:05;;;;;;;8.47;5.23;;;;;;;3.11;85.87;95864.91;5050016;28;20174;-71
2023/01/25 09:37:31;;;;;;;9.90;5.37;;;;;;;2.87;86.99;95854.13;5050141;28;20179;-72
2023/01/25 09:39:56;;;;;;;9.47;5.23;;;;;;;3.02;86.67;95852.75;5052827;28;20183;-73
2023/01/25 09:42:25;;;;;;;6.53;5.07;;;;;;;3.14;86.92;95849.00;5053208;28;20177;-72
2023/01/25 09:44:56;;;;;;;9.10;5.10;;;;;;;3.21;87.11;95846.66;5044665;28;20190;-72
2023/01/25 09:47:31;;;;;;;9.50;5.00;;;;;;;3.15;86.01;95842.84;5048790;28;20853;-73
2023/01/25 09:49:57;;;;;;;6.00;4.77;;;;;;;2.99;87.09;95830.44;5053360;28;20178;-73
2023/01/25 09:52:44;;;;;;;7.50;4.50;;;;;;;2.96;86.92;95830.72;5054189;28;20210;-72
2023/01/25 09:55:15;;;;;;;6.23;4.47;;;;;;;3.01;87.20;95831.13;5050939;28;20719;-73
2023/01/25 09:57:44;;;;;;;9.07;5.20;;;;;;;3.17;87.76;95827.94;5048582;28;20560;-74
2023/01/25 10:00:21;;;;;;;8.50;4.73;;;;;;;3.41;89.40;95824.84;5068316;28;20179;-73
2023/01/25 10:03:01;;;;;;;7.00;4.60;;;;;;;3.65;86.87;95821.72;5052730;28;20183;-73
2023/01/25 10:05:31;;;;;;;6.13;4.43;;;;;;;3.48;84.76;95820.69;5033556;28;20180;-73
2023/01/25 10:08:02;;;;;;;6.97;3.70;;;;;;;3.23;84.60;95803.94;5049304;28;20317;-74
2023/01/25 10:10:42;;;;;;;6.27;4.37;;;;;;;3.08;85.95;95799.34;5071683;28;20609;-73
2023/01/25 10:13:14;;;;;;;7.20;4.83;;;;;;;3.30;87.81;95793.78;5051802;28;20194;-72
2023/01/25 10:15:46;;;;;;;7.03;5.20;;;;;;;3.34;86.57;95795.16;5062477;28;20178;-73
2023/01/25 10:18:20;;;;;;;7.50;4.90;;;;;;;3.54;87.52;95790.69;5063204;28;20170;-73
2023/01/25 10:20:53;;;;;;;7.40;4.47;;;;;;;3.33;85.33;95791.72;5061439;28;20179;-73
2023/01/25 10:23:32;;;;;;;8.50;4.73;;;;;;;3.36;85.85;95785.44;5069284;28;20180;-73
2023/01/25 10:26:12;;;;;;;7.73;4.50;;;;;;;3.59;85.01;95780.66;5051596;28;20209;-73
2023/01/25 10:28:43;;;;;;;7.13;4.90;;;;;;;3.56;83.51;95780.94;5062257;28;20205;-73
2023/01/25 10:31:36;;;;;;;6.67;4.20;;;;;;;3.61;82.93;95787.34;5067054;28;20213;-73
2023/01/25 10:34:11;;;;;;;8.17;4.03;;;;;;;3.61;82.38;95787.34;5052549;28;20201;-73
2023/01/25 10:36:36;;;;;;;4.70;3.70;;;;;;;3.45;82.30;95765.53;5062576;28;20247;-72
2023/01/25 10:39:06;;;;;;;6.63;3.97;;;;;;;3.48;83.32;95773.03;5054647;28;20194;-72
2023/01/25 10:41:39;;;;;;;6.77;4.83;;;;;;;3.64;83.07;95771.44;5070263;28;20178;-72
2023/01/25 10:47:13;;;;;;;5.57;3.70;;;;;;;3.88;79.95;95764.88;5058282;28;20229;-73
2023/01/25 10:49:42;;;;;;;4.87;3.60;;;;;;;3.88;80.31;95757.88;5068747;28;20245;-73
2023/01/25 10:52:31;;;;;;;4.73;3.80;;;;;;;3.81;80.50;95751.59;5056606;28;20273;-73
2023/01/25 10:55:17;;;;;;;6.80;3.80;;;;;;;3.86;80.58;95745.97;5056599;28;20199;-73
2023/01/25 10:57:47;;;;;;;7.33;3.93;;;;;;;3.80;80.52;95740.34;5068624;28;20649;-73
2023/01/25 11:00:29;;;;;;;6.50;3.77;;;;;;;3.94;80.40;95741.66;5058190;28;20167;-73
2023/01/25 11:02:55;;;;;;;10.20;3.73;;;;;;;4.10;80.15;95735.78;5060067;28;20163;-73
2023/01/25 11:05:23;;;;;;;5.80;3.67;;;;;;;4.22;79.16;95746.78;5051480;28;20179;-73
2023/01/25 11:07:48;;;;;;;6.43;3.93;;;;;;;4.28;78.91;95746.19;5052648;28;20235;-72
2023/01/25 11:10:33;;;;;;;4.87;3.63;;;;;;;4.18;78.72;95736.66;5050376;28;20179;-72
2023/01/25 11:13:14;;;;;;;7.50;4.63;;;;;;;4.12;79.74;95733.84;5060383;28;20214;-72
2023/01/25 11:16:04;;;;;;;6.73;4.20;;;;;;;4.27;79.05;95728.91;5050653;28;20538;-72
2023/01/25 11:18:34;;;;;;;7.03;4.13;;;;;;;4.27;78.64;95726.31;5047204;28;20201;-72
2023/01/25 11:21:04;;;;;;;6.77;4.13;;;;;;;4.20;79.12;95725.28;5039210;28;20186;-71
2023/01/25 11:23:33;;;;;;;4.17;3.50;;;;;;;4.16;78.70;95717.75;5042331;28;20715;-72
2023/01/25 11:26:16;;;;;;;6.63;4.40;;;;;;;3.99;78.94;95722.97;5039345;28;20245;-72
2023/01/25 11:28:43;;;;;;;4.80;3.60;;;;;;;3.90;79.68;95714.25;5041172;28;20565;-71
2023/01/25 11:31:20;;;;;;;5.73;4.30;;;;;;;3.98;79.82;95711.72;5038607;28;20204;-72
2023/01/25 11:33:45;;;;;;;5.30;3.70;;;;;;;4.05;79.77;95712.78;5039949;28;20179;-72
2023/01/25 11:36:44;;;;;;;7.67;4.43;;;;;;;4.17;78.78;95708.97;5041475;28;20201;-72
2023/01/25 11:39:31;;;;;;;5.63;4.17;;;;;;;4.15;78.50;95707.50;5050775;28;20257;-72
2023/01/25 11:42:08;;;;;;;5.07;3.87;;;;;;;4.24;78.34;95698.75;5045130;28;20182;-72
2023/01/25 11:45:22;;;;;;;7.07;4.30;;;;;;;4.29;77.88;95680.06;5042547;28;20534;-72
2023/01/25 11:47:50;;;;;;;7.90;4.77;;;;;;;4.41;77.54;95677.06;5049011;28;20266;-72
2023/01/25 11:50:33;;;;;;;6.63;3.97;;;;;;;4.44;77.37;95670.72;5050790;28;20270;-72
2023/01/25 11:53:33;;;;;;;5.73;4.13;;;;;;;4.42;77.31;95675.28;5051664;28;20698;-72